Time;durP1;ratioP1;P1;durP2;ratioP2;P2;SDS_P1;SDS_P2;PMS_P1;PMS_P2;Temp;Humidity;BMP_temperature;BMP_pressure;BME280_temperature;BME280_humidity;BME280_pressure;Samples;Min_cycle;Max_cycle;Signal;HPM_P1;HPM_P2
2021/12/18 00:01:35;;;;;;;15.35;3.13;;;6.60;99.90;;;;;;4989242;28;20148;-82
2021/12/18 00:04:02;;;;;;;12.10;2.67;;;7.00;99.90;;;;;;4972531;28;20033;-82
2021/12/18 00:06:29;;;;;;;16.67;2.60;;;6.60;99.90;;;;;;4970163;28;20042;-82
2021/12/18 00:08:56;;;;;;;19.27;2.90;;;6.90;99.90;;;;;;4970666;28;20042;-82
2021/12/18 00:11:21;;;;;;;11.57;2.30;;;6.60;99.90;;;;;;4954037;28;20054;-82
2021/12/18 00:13:49;;;;;;;15.15;2.25;;;6.90;99.90;;;;;;4954101;28;20056;-82
2021/12/18 00:16:14;;;;;;;9.18;2.20;;;7.30;99.90;;;;;;4970542;28;20406;-83
2021/12/18 00:18:40;;;;;;;9.60;2.72;;;6.90;99.90;;;;;;4982636;28;20044;-83
2021/12/18 00:21:07;;;;;;;24.15;3.15;;;7.30;99.90;;;;;;4973862;28;20046;-83
2021/12/18 00:23:33;;;;;;;17.05;2.78;;;6.60;99.90;;;;;;4972728;28;20397;-82
2021/12/18 00:25:59;;;;;;;12.10;2.55;;;6.60;99.90;;;;;;4973916;28;20041;-83
2021/12/18 00:28:24;;;;;;;18.77;2.47;;;6.60;99.90;;;;;;4989784;28;20498;-82
2021/12/18 00:30:50;;;;;;;11.27;2.00;;;6.60;99.90;;;;;;4972507;28;20050;-82
2021/12/18 00:33:16;;;;;;;10.05;2.28;;;6.60;99.90;;;;;;4972473;28;20046;-82
2021/12/18 00:35:42;;;;;;;16.33;2.13;;;7.50;99.90;;;;;;4989493;28;20141;-82
2021/12/18 00:38:08;;;;;;;12.73;2.65;;;6.50;99.90;;;;;;4972629;28;20049;-83
2021/12/18 00:40:46;;;;;;;12.73;2.60;;;7.20;99.90;;;;;;4973053;28;20872;-83
2021/12/18 00:43:27;;;;;;;9.23;2.38;;;6.60;99.90;;;;;;4988377;28;20046;-82
2021/12/18 00:45:53;;;;;;;7.10;1.52;;;6.50;99.90;;;;;;4970099;28;20469;-82
2021/12/18 00:48:20;;;;;;;7.75;1.50;;;6.50;99.90;;;;;;4969376;28;20053;-82
2021/12/18 00:50:46;;;;;;;5.65;1.50;;;7.40;99.90;;;;;;4986556;28;20085;-82
2021/12/18 00:53:11;;;;;;;7.65;1.40;;;6.40;99.90;;;;;;4969302;28;20042;-82
2021/12/18 00:55:38;;;;;;;5.53;1.33;;;6.40;99.90;;;;;;4972805;28;20050;-83
2021/12/18 00:58:04;;;;;;;5.63;1.40;;;6.40;99.90;;;;;;4973548;28;20556;-82
2021/12/18 01:00:31;;;;;;;8.02;2.10;;;6.60;99.90;;;;;;4972108;28;20053;-82
2021/12/18 01:03:00;;;;;;;13.85;2.28;;;7.30;99.90;;;;;;4956733;28;20532;-82
2021/12/18 01:05:28;;;;;;;14.73;1.90;;;6.30;99.90;;;;;;4973444;28;20053;-82
2021/12/18 01:07:58;;;;;;;8.52;1.85;;;6.40;99.90;;;;;;4972965;28;20046;-82
2021/12/18 01:10:40;;;;;;;9.25;1.48;;;6.30;99.90;;;;;;4962683;28;20051;-82
2021/12/18 01:13:09;;;;;;;9.93;2.05;;;7.20;99.90;;;;;;4956450;28;20043;-83
2021/12/18 01:15:40;;;;;;;29.33;2.45;;;6.60;99.90;;;;;;4972911;28;20038;-83
2021/12/18 01:23:35;;;;;;;16.10;2.20;;;6.50;99.90;;;;;;4972190;28;20073;-83
2021/12/18 01:26:03;;;;;;;42.08;2.58;;;6.80;99.90;;;;;;4957644;28;20034;-83
2021/12/18 01:28:29;;;;;;;15.23;2.05;;;6.30;99.90;;;;;;4971637;28;20481;-82
2021/12/18 01:30:55;;;;;;;31.70;2.83;;;6.30;99.90;;;;;;4973233;28;20042;-82
2021/12/18 01:33:21;;;;;;;13.50;2.17;;;6.80;99.90;;;;;;4987910;28;20053;-82
2021/12/18 01:35:47;;;;;;;22.52;2.63;;;6.20;99.90;;;;;;4988176;28;20042;-82
2021/12/18 01:38:13;;;;;;;27.60;2.45;;;6.30;99.90;;;;;;4956718;28;20061;-83
2021/12/18 01:40:39;;;;;;;29.13;2.58;;;6.30;99.90;;;;;;4972540;28;20039;-83
2021/12/18 01:44:06;;;;;;;17.27;2.65;;;6.30;99.90;;;;;;4988471;28;20061;-83
2021/12/18 01:46:19;;;;;;;29.10;3.30;;;6.20;99.90;;;;;;4972796;28;20042;-83
2021/12/18 01:51:58;;;;;;;26.13;3.58;;;6.70;99.90;;;;;;4972228;28;20097;-83
2021/12/18 01:54:24;;;;;;;27.83;3.58;;;6.40;99.90;;;;;;4989138;28;20094;-82
2021/12/18 01:56:50;;;;;;;22.58;3.10;;;7.20;99.90;;;;;;4957381;28;20498;-83
2021/12/18 01:59:16;;;;;;;26.13;3.85;;;6.30;99.90;;;;;;4991464;28;20042;-82
2021/12/18 02:01:41;;;;;;;17.58;3.25;;;6.30;99.90;;;;;;4975631;28;20064;-82
2021/12/18 02:04:07;;;;;;;15.70;2.90;;;6.30;99.90;;;;;;4991157;28;20494;-82
2021/12/18 02:06:33;;;;;;;18.52;3.10;;;6.30;99.90;;;;;;4971294;28;20066;-83
2021/12/18 02:08:59;;;;;;;17.13;3.08;;;7.10;99.90;;;;;;4971735;28;20125;-82
2021/12/18 02:11:29;;;;;;;14.55;3.30;;;6.30;99.90;;;;;;4957118;28;20100;-82
2021/12/18 02:14:09;;;;;;;16.65;3.50;;;6.30;99.90;;;;;;4956568;28;20046;-82
2021/12/18 02:19:35;;;;;;;16.83;3.28;;;6.30;99.90;;;;;;4972588;28;20093;-82
2021/12/18 02:22:03;;;;;;;17.02;3.83;;;6.20;99.90;;;;;;4956331;28;20062;-82
2021/12/18 02:24:32;;;;;;;23.73;3.47;;;6.30;99.90;;;;;;4971841;28;20045;-82
2021/12/18 02:26:58;;;;;;;13.68;3.42;;;6.30;99.90;;;;;;4956467;28;20053;-82
2021/12/18 02:29:25;;;;;;;22.90;3.63;;;6.30;99.90;;;;;;4956441;28;20050;-82
2021/12/18 02:31:50;;;;;;;16.42;3.47;;;7.00;99.90;;;;;;4971104;28;20116;-82
2021/12/18 02:34:23;;;;;;;19.98;2.88;;;6.30;99.90;;;;;;4971955;28;20046;-83
2021/12/18 02:36:49;;;;;;;14.02;2.45;;;6.90;99.90;;;;;;4972026;28;20108;-82
2021/12/18 02:39:24;;;;;;;21.45;2.63;;;6.30;99.90;;;;;;4955305;28;20045;-83
2021/12/18 02:42:08;;;;;;;13.85;2.38;;;6.90;99.90;;;;;;4955680;28;20509;-82
2021/12/18 02:44:35;;;;;;;24.35;3.15;;;6.30;99.90;;;;;;4970808;28;20053;-82
2021/12/18 02:47:00;;;;;;;16.77;3.35;;;6.30;99.90;;;;;;4955498;28;20909;-82
2021/12/18 02:49:27;;;;;;;16.83;2.00;;;6.30;99.90;;;;;;4988057;28;20559;-82
2021/12/18 02:51:53;;;;;;;22.23;2.70;;;6.80;99.90;;;;;;4974810;28;20041;-82
2021/12/18 02:54:19;;;;;;;14.13;1.73;;;6.30;99.90;;;;;;4991385;28;20092;-83
2021/12/18 02:56:45;;;;;;;19.85;1.73;;;6.30;99.90;;;;;;4990614;28;20061;-82
2021/12/18 02:59:10;;;;;;;15.18;1.70;;;6.40;99.90;;;;;;4974646;28;20088;-82
2021/12/18 03:01:39;;;;;;;11.68;2.00;;;6.30;99.90;;;;;;4991399;28;20049;-83
2021/12/18 03:04:20;;;;;;;8.98;1.77;;;6.40;99.90;;;;;;4990628;28;20046;-82
2021/12/18 03:06:51;;;;;;;13.40;2.05;;;6.30;99.90;;;;;;4974300;28;20084;-82
2021/12/18 03:21:02;;;;;;;8.48;1.35;;;6.90;99.90;;;;;;4971229;28;20058;-82
2021/12/18 03:25:44;;;;;;;10.93;1.80;;;7.00;99.90;;;;;;4971544;28;20104;-83
2021/12/18 03:28:09;;;;;;;7.93;1.30;;;6.60;99.90;;;;;;4970913;28;20042;-83
2021/12/18 03:30:36;;;;;;;7.03;1.70;;;6.50;99.90;;;;;;4955282;28;20555;-83
2021/12/18 03:33:02;;;;;;;11.63;1.77;;;6.90;99.90;;;;;;4970703;28;20046;-82
2021/12/18 03:35:29;;;;;;;8.65;2.22;;;6.90;99.90;;;;;;4954088;28;20038;-82
2021/12/18 03:37:54;;;;;;;14.98;3.10;;;6.40;99.90;;;;;;4955027;28;20053;-83
2021/12/18 03:40:24;;;;;;;20.63;3.33;;;6.50;99.90;;;;;;4969741;28;20046;-83
2021/12/18 03:42:50;;;;;;;18.13;3.92;;;6.40;99.90;;;;;;4971144;28;20141;-82
2021/12/18 03:45:17;;;;;;;14.13;3.20;;;6.70;99.90;;;;;;4971241;28;20125;-82
2021/12/18 03:47:44;;;;;;;10.73;2.90;;;6.80;99.90;;;;;;4953767;28;20043;-83
2021/12/18 03:50:10;;;;;;;15.13;3.50;;;6.80;99.90;;;;;;4955659;28;20060;-83
2021/12/18 03:52:36;;;;;;;15.18;3.05;;;6.50;99.90;;;;;;4954616;28;20133;-83
2021/12/18 03:55:02;;;;;;;10.30;2.72;;;6.50;99.90;;;;;;4971193;28;20057;-83
2021/12/18 03:57:28;;;;;;;11.43;2.75;;;6.50;99.90;;;;;;4969720;28;20066;-83
2021/12/18 03:59:54;;;;;;;11.25;2.40;;;7.40;99.90;;;;;;4971855;28;20058;-83
2021/12/18 04:02:20;;;;;;;14.38;2.22;;;6.50;99.90;;;;;;4953442;28;20487;-82
2021/12/18 04:04:45;;;;;;;14.13;2.50;;;6.50;99.90;;;;;;4956853;28;20134;-83
2021/12/18 04:07:11;;;;;;;14.65;2.90;;;6.60;99.90;;;;;;4970737;28;20121;-82
2021/12/18 04:09:37;;;;;;;13.60;2.97;;;6.60;99.90;;;;;;4970204;28;20150;-82
2021/12/18 04:12:03;;;;;;;25.42;3.53;;;6.60;99.90;;;;;;4987203;28;20562;-82
2021/12/18 04:14:29;;;;;;;17.85;3.30;;;6.60;99.90;;;;;;4970900;28;20483;-83
2021/12/18 04:16:56;;;;;;;19.33;3.53;;;6.60;99.90;;;;;;4969465;28;20124;-82
2021/12/18 04:19:21;;;;;;;16.55;3.78;;;6.60;99.90;;;;;;4971384;28;20414;-83
2021/12/18 04:21:48;;;;;;;16.75;3.55;;;6.70;99.90;;;;;;4970409;28;20060;-83
2021/12/18 04:24:14;;;;;;;15.68;3.60;;;7.30;99.90;;;;;;4970388;28;20052;-83
2021/12/18 04:26:40;;;;;;;21.45;3.67;;;6.80;99.90;;;;;;4971135;28;20046;-83
2021/12/18 04:29:06;;;;;;;22.20;4.05;;;6.70;99.90;;;;;;4972057;28;20054;-83
2021/12/18 04:31:34;;;;;;;19.08;3.65;;;6.70;99.90;;;;;;4973076;28;20046;-83
2021/12/18 04:34:00;;;;;;;15.90;3.17;;;6.70;99.90;;;;;;4973542;28;20046;-82
2021/12/18 04:36:26;;;;;;;17.98;3.50;;;6.70;99.90;;;;;;4974630;28;20074;-83
2021/12/18 04:38:52;;;;;;;24.70;4.35;;;6.80;99.90;;;;;;4957191;28;20488;-82
2021/12/18 04:41:23;;;;;;;14.70;3.90;;;6.70;99.90;;;;;;4974591;28;20046;-83
2021/12/18 04:43:50;;;;;;;13.35;3.38;;;7.30;99.90;;;;;;4970401;28;20137;-83
2021/12/18 04:46:16;;;;;;;13.52;3.40;;;6.70;99.90;;;;;;4974624;28;20488;-83
2021/12/18 04:48:41;;;;;;;14.57;3.35;;;6.70;99.90;;;;;;4973295;28;20081;-83
2021/12/18 04:51:07;;;;;;;19.63;3.95;;;7.10;99.90;;;;;;4957432;28;20154;-82
2021/12/18 04:53:33;;;;;;;18.30;4.50;;;6.80;99.90;;;;;;4973738;28;20042;-82
2021/12/18 04:55:58;;;;;;;24.20;4.78;;;6.80;99.90;;;;;;4973771;28;20113;-83
2021/12/18 04:58:24;;;;;;;18.63;4.70;;;7.50;99.90;;;;;;4989322;28;20145;-83
2021/12/18 05:00:50;;;;;;;18.40;5.05;;;7.30;99.90;;;;;;4974226;28;20093;-82
2021/12/18 05:03:17;;;;;;;15.85;5.18;;;7.70;99.90;;;;;;4972967;28;20038;-83
2021/12/18 05:05:43;;;;;;;27.05;5.65;;;7.40;99.90;;;;;;4973377;28;20043;-82
2021/12/18 05:08:09;;;;;;;26.83;6.30;;;6.90;99.90;;;;;;4973987;28;20085;-82
2021/12/18 05:10:36;;;;;;;17.35;5.45;;;7.20;99.90;;;;;;4957555;28;20069;-82
2021/12/18 05:13:01;;;;;;;20.45;5.57;;;6.90;99.90;;;;;;4989846;28;20376;-82
2021/12/18 05:15:27;;;;;;;31.33;6.88;;;6.90;99.90;;;;;;4989943;28;20106;-82
2021/12/18 05:17:53;;;;;;;27.83;6.47;;;7.40;99.90;;;;;;4957318;28;20437;-83
2021/12/18 05:20:19;;;;;;;29.17;7.30;;;7.00;99.90;;;;;;4972428;28;20046;-83
2021/12/18 05:22:44;;;;;;;22.45;6.60;;;6.90;99.90;;;;;;4973462;28;20050;-83
2021/12/18 05:25:10;;;;;;;23.02;6.45;;;7.40;99.90;;;;;;4974404;28;20133;-83
2021/12/18 05:27:36;;;;;;;39.60;8.48;;;7.00;99.90;;;;;;4972338;28;20430;-82
2021/12/18 05:30:05;;;;;;;29.08;6.47;;;7.40;99.90;;;;;;4990095;28;20073;-83
2021/12/18 05:32:31;;;;;;;35.13;6.97;;;7.00;99.90;;;;;;4971759;28;20112;-82
2021/12/18 05:34:57;;;;;;;41.72;8.45;;;7.70;99.90;;;;;;4989098;28;20038;-82
2021/12/18 05:37:44;;;;;;;25.25;6.32;;;6.90;99.90;;;;;;4972752;28;20121;-83
2021/12/18 05:40:11;;;;;;;36.78;8.05;;;7.00;99.90;;;;;;4955476;28;20149;-82
2021/12/18 05:42:37;;;;;;;40.78;9.15;;;7.00;99.90;;;;;;4973189;28;20054;-83
2021/12/18 05:45:04;;;;;;;29.70;7.30;;;7.70;99.90;;;;;;4957268;28;20124;-83
2021/12/18 05:47:31;;;;;;;26.85;6.80;;;7.00;99.90;;;;;;4955355;28;20046;-83
2021/12/18 05:49:57;;;;;;;38.42;7.78;;;7.10;99.90;;;;;;4973843;28;20042;-82
2021/12/18 05:52:23;;;;;;;27.95;6.82;;;8.00;99.90;;;;;;4972464;28;20487;-82
2021/12/18 05:54:49;;;;;;;41.40;8.43;;;7.10;99.90;;;;;;4988580;28;20089;-83
2021/12/18 05:57:15;;;;;;;37.58;7.65;;;7.10;99.90;;;;;;4972421;28;20085;-83
2021/12/18 05:59:42;;;;;;;33.65;7.43;;;7.10;99.90;;;;;;4972788;28;20558;-83
2021/12/18 06:02:08;;;;;;;29.92;7.25;;;7.50;99.90;;;;;;4971234;28;20052;-83
2021/12/18 06:04:34;;;;;;;29.58;7.32;;;8.00;99.90;;;;;;4972390;28;20046;-83
2021/12/18 06:07:05;;;;;;;35.95;7.72;;;7.40;99.90;;;;;;4989207;28;20050;-83
2021/12/18 06:09:33;;;;;;;21.30;6.32;;;7.20;99.90;;;;;;4988124;28;20161;-83
2021/12/18 06:12:00;;;;;;;30.33;6.70;;;7.80;99.90;;;;;;4989018;28;20046;-82
2021/12/18 06:14:27;;;;;;;30.38;7.28;;;7.20;99.90;;;;;;4972488;28;20041;-83
2021/12/18 06:16:52;;;;;;;28.35;6.97;;;7.20;99.90;;;;;;4971630;28;20145;-83
2021/12/18 06:19:18;;;;;;;27.23;7.10;;;7.20;99.90;;;;;;4972818;28;20043;-83
2021/12/18 06:21:44;;;;;;;36.20;7.30;;;7.20;99.90;;;;;;4972864;28;20046;-83
2021/12/18 06:24:09;;;;;;;25.67;6.63;;;7.50;99.90;;;;;;4972498;28;20034;-82
2021/12/18 06:26:35;;;;;;;41.28;7.75;;;7.20;99.90;;;;;;4971725;28;20137;-83
2021/12/18 06:29:01;;;;;;;29.02;6.80;;;7.30;99.90;;;;;;4973040;28;20137;-83
2021/12/18 06:31:26;;;;;;;32.70;7.20;;;7.30;99.90;;;;;;4972145;28;20084;-83
2021/12/18 06:33:52;;;;;;;29.08;7.40;;;7.50;99.90;;;;;;4955650;28;20633;-83
2021/12/18 06:36:18;;;;;;;30.27;6.90;;;7.50;99.90;;;;;;4971647;28;20046;-83
2021/12/18 06:38:43;;;;;;;30.48;7.03;;;8.10;99.90;;;;;;4971616;28;20046;-83
2021/12/18 06:41:09;;;;;;;27.55;7.07;;;8.40;99.90;;;;;;4988946;28;20049;-83
2021/12/18 06:43:36;;;;;;;33.50;7.78;;;8.00;99.90;;;;;;4970227;28;20121;-83
2021/12/18 06:46:02;;;;;;;34.35;6.95;;;7.40;99.90;;;;;;4973614;28;20055;-82
2021/12/18 06:48:27;;;;;;;21.77;6.35;;;7.40;99.90;;;;;;4964581;28;20042;-82
2021/12/18 06:50:53;;;;;;;25.55;6.22;;;8.20;99.90;;;;;;4963955;28;20042;-83
2021/12/18 06:53:19;;;;;;;21.65;6.72;;;7.40;99.90;;;;;;4979898;28;20402;-82
2021/12/18 06:55:45;;;;;;;23.65;6.85;;;7.50;99.90;;;;;;4965041;28;20048;-83
2021/12/18 06:58:10;;;;;;;21.08;6.65;;;7.50;99.90;;;;;;4963089;28;20137;-82
2021/12/18 07:00:36;;;;;;;27.13;8.63;;;8.00;99.90;;;;;;4980633;28;20516;-83
2021/12/18 07:03:02;;;;;;;28.83;7.25;;;7.50;99.90;;;;;;4963443;28;20049;-82
2021/12/18 07:05:27;;;;;;;18.52;5.43;;;7.50;99.90;;;;;;4961881;28;20034;-83
2021/12/18 07:07:53;;;;;;;21.95;5.80;;;8.10;99.90;;;;;;4963884;28;20489;-82
2021/12/18 07:10:19;;;;;;;20.90;5.72;;;7.60;99.90;;;;;;4978153;28;20486;-82
2021/12/18 07:12:44;;;;;;;23.27;5.78;;;8.50;99.90;;;;;;4963829;28;20050;-82
2021/12/18 07:15:12;;;;;;;21.38;5.63;;;8.00;99.90;;;;;;4962750;28;20065;-83
2021/12/18 07:17:38;;;;;;;20.25;4.45;;;7.60;99.90;;;;;;4964364;28;20447;-83
2021/12/18 07:20:05;;;;;;;14.73;4.35;;;7.60;99.90;;;;;;4978403;28;20029;-83
2021/12/18 07:22:31;;;;;;;17.20;4.43;;;7.60;99.90;;;;;;4967792;28;20605;-83
2021/12/18 07:24:57;;;;;;;16.88;4.20;;;7.70;99.90;;;;;;4975186;28;20041;-83
2021/12/18 07:27:23;;;;;;;18.60;4.05;;;7.60;99.90;;;;;;4974245;28;20045;-82
2021/12/18 07:29:48;;;;;;;18.85;3.72;;;8.10;99.90;;;;;;4989649;28;20768;-86
2021/12/18 07:32:14;;;;;;;20.77;3.72;;;7.70;99.90;;;;;;4966488;28;20225;-84
2021/12/18 07:34:40;;;;;;;16.10;4.22;;;8.40;99.90;;;;;;4970282;28;20196;-86
2021/12/18 07:37:05;;;;;;;12.30;3.63;;;7.70;99.90;;;;;;4966340;28;20049;-86
2021/12/18 07:39:31;;;;;;;17.83;4.03;;;7.70;99.90;;;;;;4962285;28;20527;-84
2021/12/18 07:41:57;;;;;;;17.88;4.03;;;8.10;99.90;;;;;;4955607;28;20050;-83
2021/12/18 07:44:22;;;;;;;16.10;3.85;;;7.80;99.90;;;;;;4971039;28;20389;-83
2021/12/18 07:46:48;;;;;;;17.23;3.95;;;7.80;99.90;;;;;;4954227;28;20144;-82
2021/12/18 07:49:14;;;;;;;15.80;3.72;;;7.80;99.90;;;;;;4971393;28;20077;-83
2021/12/18 07:51:40;;;;;;;14.80;3.72;;;8.40;99.90;;;;;;4970971;28;20133;-83
2021/12/18 07:54:06;;;;;;;16.25;3.40;;;8.30;99.90;;;;;;4954801;28;20034;-83
2021/12/18 07:56:34;;;;;;;14.13;3.28;;;7.80;99.90;;;;;;4954353;28;20054;-82
2021/12/18 07:59:00;;;;;;;13.25;3.38;;;8.30;99.90;;;;;;4971771;28;20050;-82
2021/12/18 08:01:26;;;;;;;15.45;3.15;;;7.80;99.90;;;;;;4954329;28;20038;-82
2021/12/18 08:03:52;;;;;;;17.20;3.50;;;7.90;99.90;;;;;;4955053;28;20097;-83
2021/12/18 08:06:20;;;;;;;15.63;2.88;;;8.60;99.90;;;;;;4977323;28;20493;-83
2021/12/18 08:08:46;;;;;;;18.83;3.15;;;8.00;99.90;;;;;;4977069;28;20042;-82
2021/12/18 08:11:12;;;;;;;23.05;3.72;;;8.50;99.90;;;;;;4978302;28;20088;-82
2021/12/18 08:13:38;;;;;;;12.43;3.03;;;7.90;99.90;;;;;;4989192;28;20054;-82
2021/12/18 08:16:04;;;;;;;18.35;2.90;;;8.10;99.90;;;;;;4971464;28;20082;-82
2021/12/18 08:18:30;;;;;;;11.88;2.65;;;7.90;99.90;;;;;;4973174;28;20057;-82
2021/12/18 08:20:56;;;;;;;13.80;3.15;;;7.90;99.90;;;;;;4974483;28;20077;-82
2021/12/18 08:23:21;;;;;;;17.02;3.38;;;8.50;99.90;;;;;;4973463;28;20049;-82
2021/12/18 08:25:48;;;;;;;11.48;2.88;;;7.90;99.90;;;;;;4990146;28;20574;-83
2021/12/18 08:28:14;;;;;;;16.42;2.55;;;7.90;99.90;;;;;;4990276;28;20077;-83
2021/12/18 08:30:40;;;;;;;18.33;3.45;;;8.40;99.90;;;;;;4974253;28;20132;-82
2021/12/18 08:33:06;;;;;;;16.67;2.75;;;8.00;99.90;;;;;;4973796;28;20132;-82
2021/12/18 08:35:33;;;;;;;14.77;1.95;;;8.90;99.90;;;;;;4986756;28;20053;-82
2021/12/18 08:38:01;;;;;;;22.85;2.47;;;8.00;99.90;;;;;;4971002;28;20045;-83
2021/12/18 08:40:28;;;;;;;13.68;2.85;;;8.50;99.90;;;;;;4973753;28;20045;-83
2021/12/18 08:42:54;;;;;;;17.25;2.40;;;8.50;99.90;;;;;;4973430;28;20145;-83
2021/12/18 08:45:20;;;;;;;11.70;2.00;;;8.80;99.90;;;;;;4989792;28;20124;-83
2021/12/18 08:47:46;;;;;;;11.55;1.98;;;8.00;99.90;;;;;;4973578;28;20523;-83
2021/12/18 08:50:16;;;;;;;16.42;2.42;;;7.90;99.90;;;;;;4989461;28;20497;-83
2021/12/18 08:52:41;;;;;;;13.65;2.30;;;8.10;99.90;;;;;;4989994;28;20050;-83
2021/12/18 08:55:08;;;;;;;14.77;2.58;;;8.00;99.90;;;;;;4982044;28;20391;-83
2021/12/18 08:57:34;;;;;;;10.40;2.42;;;8.00;99.90;;;;;;4999946;22;20418;-84
2021/12/18 09:00:01;;;;;;;14.77;2.58;;;9.20;99.90;;;;;;4971140;28;20050;-83
2021/12/18 09:02:26;;;;;;;15.35;3.13;;;8.00;99.90;;;;;;4952686;28;20673;-82
2021/12/18 09:04:52;;;;;;;14.73;2.65;;;8.00;99.90;;;;;;4952327;28;20113;-82
2021/12/18 09:07:18;;;;;;;9.80;1.98;;;8.10;99.90;;;;;;4945310;28;20101;-82
2021/12/18 09:09:44;;;;;;;12.55;2.08;;;8.10;99.90;;;;;;4982704;28;20053;-83
2021/12/18 09:12:11;;;;;;;10.15;2.22;;;8.10;99.90;;;;;;4986314;28;20136;-82
2021/12/18 09:14:38;;;;;;;11.80;1.83;;;8.10;99.90;;;;;;4959984;28;20050;-83
2021/12/18 09:17:04;;;;;;;13.88;2.10;;;9.00;99.90;;;;;;4953575;28;20792;-82
2021/12/18 09:19:30;;;;;;;9.50;1.95;;;8.50;99.90;;;;;;4968838;28;20046;-83
2021/12/18 09:21:55;;;;;;;15.25;2.17;;;8.20;99.90;;;;;;4970766;28;20046;-82
2021/12/18 09:24:21;;;;;;;18.45;3.42;;;8.20;99.90;;;;;;4953540;28;20501;-82
2021/12/18 09:26:48;;;;;;;13.95;2.70;;;8.20;99.90;;;;;;4969801;28;20478;-83
2021/12/18 09:29:14;;;;;;;12.93;2.47;;;8.20;99.90;;;;;;4953397;28;20632;-82
2021/12/18 09:31:40;;;;;;;14.07;2.35;;;8.20;99.90;;;;;;4951167;28;20069;-85
2021/12/18 09:34:06;;;;;;;13.38;2.90;;;8.20;99.90;;;;;;4949587;28;20059;-82
2021/12/18 09:36:31;;;;;;;18.73;3.25;;;8.80;99.90;;;;;;4937199;28;20479;-84
2021/12/18 09:38:57;;;;;;;16.02;3.92;;;8.30;99.90;;;;;;4964038;28;20864;-82
2021/12/18 09:41:24;;;;;;;12.82;3.67;;;8.30;99.90;;;;;;4957315;28;20049;-82
2021/12/18 09:43:50;;;;;;;10.48;3.63;;;8.40;99.90;;;;;;4957257;28;20121;-82
2021/12/18 09:46:17;;;;;;;19.30;3.50;;;8.20;99.90;;;;;;4973015;28;20046;-82
2021/12/18 09:48:44;;;;;;;17.90;3.75;;;8.50;99.90;;;;;;4971956;28;20574;-84
2021/12/18 09:51:22;;;;;;;14.82;3.75;;;8.30;99.90;;;;;;4949083;28;20046;-84
2021/12/18 09:53:50;;;;;;;13.32;3.70;;;8.30;99.90;;;;;;4953225;28;20055;-84
2021/12/18 09:56:15;;;;;;;12.75;4.53;;;8.60;99.90;;;;;;4938329;28;20133;-84
2021/12/18 09:58:41;;;;;;;16.15;3.78;;;8.30;99.90;;;;;;4953652;28;20133;-86
2021/12/18 10:01:07;;;;;;;9.90;3.75;;;8.30;99.90;;;;;;4937829;28;20055;-86
2021/12/18 10:03:43;;;;;;;11.30;3.72;;;8.30;99.90;;;;;;4936617;28;20054;-84
2021/12/18 10:06:33;;;;;;;13.38;3.72;;;9.00;99.90;;;;;;4953624;28;20126;-85
2021/12/18 10:08:59;;;;;;;16.92;4.68;;;8.30;99.90;;;;;;4936657;28;20099;-84
2021/12/18 10:11:25;;;;;;;16.55;4.40;;;9.20;99.90;;;;;;4954413;28;20086;-84
2021/12/18 10:13:53;;;;;;;17.88;4.10;;;8.30;99.90;;;;;;4953272;28;20038;-84
2021/12/18 10:16:20;;;;;;;14.57;4.90;;;8.70;99.90;;;;;;4937140;28;20043;-85
2021/12/18 10:18:45;;;;;;;12.48;4.40;;;8.30;99.90;;;;;;4975570;28;20038;-85
2021/12/18 10:21:17;;;;;;;14.02;3.75;;;8.40;99.90;;;;;;4972081;28;20046;-84
2021/12/18 10:23:45;;;;;;;15.02;4.20;;;8.40;99.90;;;;;;4949425;28;20039;-84
2021/12/18 10:26:37;;;;;;;19.80;5.00;;;8.80;99.90;;;;;;4957758;28;20038;-84
2021/12/18 10:29:07;;;;;;;16.45;4.28;;;8.40;99.90;;;;;;4948369;28;20076;-86
2021/12/18 10:31:46;;;;;;;16.52;3.75;;;8.40;99.90;;;;;;4947867;28;20077;-86
2021/12/18 10:34:19;;;;;;;14.57;3.30;;;8.40;99.90;;;;;;4945281;28;20049;-85
2021/12/18 10:37:14;;;;;;;11.70;2.90;;;8.50;99.90;;;;;;4952643;28;20061;-84
2021/12/18 10:39:53;;;;;;;15.18;3.55;;;8.50;99.90;;;;;;4953522;28;20219;-84
2021/12/18 10:42:28;;;;;;;12.55;3.65;;;9.50;99.90;;;;;;4966750;28;20197;-85
2021/12/18 10:45:06;;;;;;;16.38;3.97;;;8.50;99.90;;;;;;4972429;28;20051;-85
2021/12/18 10:47:53;;;;;;;18.05;3.97;;;8.50;99.90;;;;;;4955057;28;20441;-84
2021/12/18 10:50:30;;;;;;;14.82;3.78;;;8.50;99.90;;;;;;4955170;28;20495;-84
2021/12/18 10:53:05;;;;;;;15.48;3.60;;;8.50;99.90;;;;;;4956257;28;20100;-84
2021/12/18 10:55:47;;;;;;;14.98;4.32;;;8.50;99.90;;;;;;4952889;28;20054;-84
2021/12/18 10:58:24;;;;;;;12.02;2.80;;;8.50;99.90;;;;;;4952089;28;20067;-85
2021/12/18 11:00:58;;;;;;;12.93;3.80;;;8.80;99.90;;;;;;4952980;28;20054;-84
2021/12/18 11:03:29;;;;;;;14.73;4.57;;;8.50;99.90;;;;;;4950689;28;20572;-84
2021/12/18 11:06:20;;;;;;;13.82;2.90;;;8.50;99.90;;;;;;4953577;28;20086;-84
2021/12/18 11:09:12;;;;;;;9.52;2.22;;;8.50;99.90;;;;;;4968364;28;20130;-84
2021/12/18 11:14:17;;;;;;;8.55;2.05;;;8.60;99.90;;;;;;4968905;28;20069;-84
2021/12/18 11:16:47;;;;;;;11.10;2.38;;;9.00;99.90;;;;;;4952814;28;20086;-84
2021/12/18 11:19:16;;;;;;;13.73;2.08;;;8.60;99.90;;;;;;4967413;28;20039;-84
2021/12/18 11:21:49;;;;;;;14.23;2.47;;;9.00;99.90;;;;;;4952954;28;20055;-84
2021/12/18 11:24:16;;;;;;;14.73;2.00;;;8.80;99.90;;;;;;4953535;28;20043;-89
2021/12/18 11:27:02;;;;;;;10.38;2.20;;;8.70;99.90;;;;;;4954640;28;20510;-86
2021/12/18 11:29:34;;;;;;;11.23;2.30;;;9.60;99.90;;;;;;4953125;28;20049;-89
2021/12/18 11:32:09;;;;;;;12.68;2.80;;;9.00;99.90;;;;;;4952395;28;20043;-87
2021/12/18 11:34:38;;;;;;;13.40;2.80;;;8.70;99.90;;;;;;4972486;28;20080;-86
2021/12/18 11:37:12;;;;;;;9.95;2.88;;;8.70;99.90;;;;;;4955912;28;20060;-87
2021/12/18 11:39:54;;;;;;;9.23;2.60;;;8.70;99.90;;;;;;4956035;28;20402;-88
2021/12/18 11:42:28;;;;;;;9.07;2.38;;;8.80;99.90;;;;;;4957638;28;20050;-84
2021/12/18 11:45:03;;;;;;;8.15;2.00;;;8.70;99.90;;;;;;4956484;28;20509;-88
2021/12/18 11:47:33;;;;;;;14.40;2.70;;;9.10;99.90;;;;;;4954530;28;20490;-86
2021/12/18 11:50:01;;;;;;;12.15;2.70;;;9.80;99.90;;;;;;4956776;28;20054;-87
2021/12/18 11:52:45;;;;;;;10.43;2.45;;;8.80;99.90;;;;;;4971618;28;20057;-86
2021/12/18 11:55:44;;;;;;;12.77;2.63;;;9.80;99.90;;;;;;4956794;28;20057;-96
2021/12/18 11:58:18;;;;;;;10.70;2.55;;;8.50;99.90;;;;;;4957177;28;20401;-84
2021/12/18 12:00:51;;;;;;;14.95;2.58;;;8.80;99.90;;;;;;4970949;28;20625;-84
2021/12/18 12:03:28;;;;;;;13.00;2.50;;;8.80;99.90;;;;;;4954313;28;20050;-85
2021/12/18 12:05:59;;;;;;;18.85;2.95;;;8.80;99.90;;;;;;4941450;28;20357;-85
2021/12/18 12:08:35;;;;;;;11.60;2.50;;;8.80;99.90;;;;;;4935668;28;20043;-84
2021/12/18 12:11:16;;;;;;;16.27;2.30;;;8.80;99.90;;;;;;4936003;28;20039;-84
2021/12/18 12:14:02;;;;;;;14.43;2.78;;;8.80;99.90;;;;;;4935439;28;20101;-84
2021/12/18 12:16:43;;;;;;;11.98;2.65;;;9.60;99.90;;;;;;4936031;28;20141;-85
2021/12/18 12:19:12;;;;;;;15.38;3.83;;;8.80;99.90;;;;;;4936891;28;20058;-85
2021/12/18 12:21:49;;;;;;;21.70;3.00;;;8.80;99.90;;;;;;4954500;28;20077;-85
2021/12/18 12:24:18;;;;;;;9.90;2.88;;;8.80;99.90;;;;;;4936310;28;20046;-84
2021/12/18 12:26:44;;;;;;;17.10;2.92;;;8.80;99.90;;;;;;4954196;28;20468;-84
2021/12/18 12:29:13;;;;;;;17.33;3.00;;;9.00;99.90;;;;;;4970720;28;20129;-85
2021/12/18 12:31:55;;;;;;;18.55;3.40;;;8.90;99.90;;;;;;4971559;28;20081;-86
2021/12/18 12:34:31;;;;;;;11.30;3.30;;;8.70;99.90;;;;;;4954961;28;20035;-85
2021/12/18 12:37:21;;;;;;;18.38;4.68;;;8.80;99.90;;;;;;4955692;28;20050;-85
2021/12/18 12:39:57;;;;;;;12.40;2.85;;;8.80;99.90;;;;;;4955438;28;20046;-87
2021/12/18 12:42:23;;;;;;;14.40;2.97;;;8.80;99.90;;;;;;4954740;28;20125;-86
2021/12/18 12:45:01;;;;;;;14.52;3.40;;;9.70;99.90;;;;;;4955049;28;20078;-85
2021/12/18 12:47:29;;;;;;;16.35;3.45;;;8.80;99.90;;;;;;4954662;28;20137;-86
2021/12/18 12:50:09;;;;;;;13.65;2.97;;;8.80;99.90;;;;;;4956397;28;20038;-88
2021/12/18 12:52:55;;;;;;;17.35;2.83;;;8.70;99.90;;;;;;4958372;28;20097;-81
2021/12/18 12:55:41;;;;;;;12.18;2.70;;;8.70;99.90;;;;;;4955068;28;20129;-86
2021/12/18 12:58:26;;;;;;;16.02;3.45;;;8.70;99.90;;;;;;4954668;28;20510;-82
2021/12/18 13:00:57;;;;;;;10.65;2.95;;;9.10;99.90;;;;;;4954324;28;20067;-81
2021/12/18 13:03:27;;;;;;;13.43;3.15;;;8.70;99.90;;;;;;4953365;28;20121;-81
2021/12/18 13:05:56;;;;;;;18.00;3.15;;;9.10;99.90;;;;;;4954235;28;20043;-80
2021/12/18 13:08:23;;;;;;;18.13;3.17;;;8.70;99.90;;;;;;4970596;28;20050;-80
2021/12/18 13:10:53;;;;;;;18.45;3.05;;;8.70;99.90;;;;;;4954117;28;20134;-81
2021/12/18 13:13:22;;;;;;;13.63;3.03;;;8.70;99.90;;;;;;4954884;28;20089;-81
2021/12/18 13:15:49;;;;;;;24.48;4.28;;;8.80;99.90;;;;;;4954349;28;20050;-81
2021/12/18 13:18:16;;;;;;;11.85;3.08;;;8.60;99.90;;;;;;4953203;28;20046;-80
2021/12/18 13:20:48;;;;;;;13.27;3.17;;;8.80;99.90;;;;;;4954338;28;20154;-80
2021/12/18 13:23:18;;;;;;;17.90;3.28;;;8.60;99.90;;;;;;4970543;28;20054;-80
2021/12/18 13:25:50;;;;;;;14.40;3.10;;;9.30;99.90;;;;;;4953433;28;20101;-80